createdAt,value
2019-02-26T00:02:25.946Z,25.40
2019-02-26T00:04:58.521Z,25.13
2019-02-26T00:07:31.661Z,24.67
2019-02-26T00:10:04.633Z,21.73
2019-02-26T00:12:35.682Z,16.43
2019-02-26T00:15:08.778Z,22.30
2019-02-26T00:17:42.610Z,32.13
2019-02-26T00:20:15.060Z,18.57
2019-02-26T00:22:46.104Z,20.73
2019-02-26T00:25:17.944Z,23.13
2019-02-26T00:27:51.879Z,24.63
2019-02-26T00:30:23.177Z,16.57
2019-02-26T00:32:55.381Z,19.53
2019-02-26T00:35:27.765Z,19.23
2019-02-26T00:37:59.088Z,21.63
2019-02-26T00:40:32.084Z,21.47
2019-02-26T00:43:04.790Z,19.73
2019-02-26T00:45:36.939Z,16.50
2019-02-26T00:48:09.084Z,18.50
2019-02-26T00:50:40.370Z,21.13
2019-02-26T00:53:11.614Z,17.20
2019-02-26T00:56:08.011Z,19.80
2019-02-26T00:58:41.521Z,18.53
2019-02-26T01:01:14.719Z,17.97
2019-02-26T01:03:47.131Z,16.07
2019-02-26T01:06:18.844Z,16.17
2019-02-26T01:08:50.137Z,18.60
2019-02-26T01:11:22.197Z,20.67
2019-02-26T01:13:55.147Z,18.27
2019-02-26T01:16:27.101Z,20.00
2019-02-26T01:18:58.451Z,18.43
2019-02-26T01:21:31.113Z,17.37
2019-02-26T01:24:04.245Z,17.70
2019-02-26T01:26:35.502Z,18.40
2019-02-26T01:29:06.888Z,21.00
2019-02-26T01:31:38.206Z,19.70
2019-02-26T01:34:11.483Z,18.90
2019-02-26T01:36:43.137Z,26.03
2019-02-26T01:39:16.209Z,19.90
2019-02-26T01:41:50.376Z,24.83
2019-02-26T01:44:21.214Z,17.27
2019-02-26T01:46:53.354Z,21.87
2019-02-26T01:49:26.708Z,22.30
2019-02-26T01:51:58.650Z,21.00
2019-02-26T01:54:30.507Z,25.30
2019-02-26T01:57:02.920Z,20.60
2019-02-26T01:59:34.658Z,24.13
2019-02-26T02:02:06.295Z,21.27
2019-02-26T02:04:39.331Z,25.83
2019-02-26T02:07:10.608Z,24.53
2019-02-26T02:09:41.984Z,22.73
2019-02-26T02:12:13.236Z,18.40
2019-02-26T02:14:44.513Z,22.40
2019-02-26T02:17:15.715Z,20.20
2019-02-26T02:19:47.007Z,19.67
2019-02-26T02:22:19.059Z,20.23
2019-02-26T02:24:53.364Z,24.77
2019-02-26T02:27:27.240Z,23.97
2019-02-26T02:29:57.768Z,23.03
2019-02-26T02:32:31.710Z,25.80
2019-02-26T02:35:04.375Z,23.70
2019-02-26T02:40:05.480Z,23.97
2019-02-26T02:42:37.718Z,19.50
2019-02-26T02:45:13.532Z,27.37
2019-02-26T02:47:44.180Z,25.93
2019-02-26T02:50:18.188Z,27.47
2019-02-26T02:52:50.746Z,34.40
2019-02-26T02:55:21.713Z,35.00
2019-02-26T02:57:55.096Z,31.07
2019-02-26T03:00:28.234Z,29.37
2019-02-26T03:02:58.921Z,30.70
2019-02-26T03:05:32.113Z,31.53
2019-02-26T03:08:03.169Z,28.80
2019-02-26T03:10:36.615Z,24.60
2019-02-26T03:13:07.446Z,25.00
2019-02-26T03:15:38.812Z,25.37
2019-02-26T03:18:12.535Z,25.60
2019-02-26T03:20:43.076Z,27.80
2019-02-26T03:23:18.974Z,30.33
2019-02-26T03:25:47.871Z,25.80
2019-02-26T03:28:20.009Z,29.00
2019-02-26T03:30:51.270Z,25.63
2019-02-26T03:33:22.559Z,29.80
2019-02-26T03:35:53.781Z,26.47
2019-02-26T03:38:26.877Z,25.97
2019-02-26T03:40:59.116Z,33.67
2019-02-26T03:46:06.683Z,26.23
2019-02-26T03:48:37.946Z,22.07
2019-02-26T03:51:09.151Z,24.90
2019-02-26T03:53:41.856Z,22.80
2019-02-26T03:56:14.882Z,21.07
2019-02-26T03:58:46.767Z,23.53
2019-02-26T04:01:19.436Z,24.77
2019-02-26T04:03:51.186Z,23.43
2019-02-26T04:06:22.460Z,22.07
2019-02-26T04:08:55.905Z,24.70
2019-02-26T04:11:27.989Z,22.70
2019-02-26T04:13:59.234Z,22.87
2019-02-26T04:16:32.377Z,23.97
2019-02-26T04:19:08.608Z,22.50
2019-02-26T04:22:31.594Z,24.50
2019-02-26T04:25:11.212Z,26.23
2019-02-26T04:28:32.963Z,26.83
2019-02-26T04:32:15.015Z,26.83
2019-02-26T04:35:57.375Z,29.57
2019-02-26T04:39:18.926Z,18.30
2019-02-26T04:42:28.883Z,31.13
2019-02-26T04:46:04.640Z,23.80
2019-02-26T04:48:37.414Z,24.80
2019-02-26T04:53:48.599Z,21.83
2019-02-26T04:56:18.948Z,26.43
2019-02-26T04:58:50.193Z,25.23
2019-02-26T05:01:21.522Z,34.00
2019-02-26T05:03:52.812Z,31.43
2019-02-26T05:06:24.067Z,31.30
2019-02-26T05:08:56.858Z,40.23
2019-02-26T05:11:32.611Z,25.70
2019-02-26T05:14:01.325Z,24.67
2019-02-26T05:16:34.737Z,26.63
2019-02-26T05:19:05.546Z,25.07
2019-02-26T05:21:37.941Z,26.77
2019-02-26T05:24:09.425Z,24.37
2019-02-26T05:26:40.659Z,34.27
2019-02-26T05:29:15.526Z,27.17
2019-02-26T05:31:46.807Z,25.60
2019-02-26T05:34:23.240Z,24.80
2019-02-26T05:36:53.980Z,25.13
2019-02-26T05:39:26.744Z,30.37
2019-02-26T05:42:00.719Z,24.63
2019-02-26T05:44:31.098Z,18.67
2019-02-26T05:47:02.378Z,29.30
2019-02-26T05:49:35.311Z,28.83
2019-02-26T05:52:07.102Z,23.93
2019-02-26T05:54:38.523Z,26.30
2019-02-26T05:57:25.521Z,31.23
2019-02-26T05:59:42.621Z,32.40
2019-02-26T06:02:16.205Z,26.10
2019-02-26T06:04:46.838Z,25.57
2019-02-26T06:07:21.759Z,28.90
2019-02-26T06:09:53.631Z,30.70
2019-02-26T06:12:23.969Z,29.57
2019-02-26T06:14:57.698Z,25.23
2019-02-26T06:17:28.114Z,25.60
2019-02-26T06:20:17.522Z,30.03
2019-02-26T06:22:48.812Z,33.53
2019-02-26T06:25:23.982Z,34.37
2019-02-26T06:27:52.989Z,27.30
2019-02-26T06:30:24.266Z,26.30
2019-02-26T06:32:59.676Z,30.87
2019-02-26T06:35:28.378Z,29.47
2019-02-26T06:38:01.973Z,29.80
2019-02-26T06:40:36.749Z,39.73
2019-02-26T06:43:05.453Z,30.70
2019-02-26T06:45:37.969Z,40.90
2019-02-26T06:48:12.599Z,22.40
2019-02-26T06:50:43.494Z,32.23
2019-02-26T06:53:18.147Z,29.47
2019-02-26T06:55:47.902Z,25.10
2019-02-26T06:58:27.306Z,33.43
2019-02-26T07:01:00.254Z,35.27
2019-02-26T07:03:31.509Z,26.10
2019-02-26T07:06:04.830Z,28.97
2019-02-26T07:08:35.718Z,31.50
2019-02-26T07:11:07.355Z,27.50
2019-02-26T07:13:41.037Z,29.33
2019-02-26T07:16:11.825Z,30.30
2019-02-26T07:18:43.351Z,34.60
2019-02-26T07:21:14.594Z,26.83
2019-02-26T07:23:45.977Z,28.27
2019-02-26T07:26:18.425Z,32.73
2019-02-26T07:28:51.039Z,30.43
2019-02-26T07:31:24.283Z,29.10
2019-02-26T07:33:58.211Z,20.83
2019-02-26T07:36:29.716Z,26.90
2019-02-26T07:39:01.516Z,21.10
2019-02-26T07:41:32.886Z,22.57
2019-02-26T07:44:04.143Z,21.17
2019-02-26T07:46:37.548Z,23.17
2019-02-26T07:49:08.654Z,22.40
2019-02-26T07:51:41.086Z,23.50
2019-02-26T07:54:13.143Z,26.03
2019-02-26T07:56:44.433Z,17.77
2019-02-26T07:59:27.279Z,19.50
2019-02-26T08:01:51.509Z,19.77
2019-02-26T08:04:22.878Z,16.80
2019-02-26T08:06:56.725Z,23.53
2019-02-26T08:09:27.030Z,22.27
2019-02-26T08:11:58.399Z,16.57
2019-02-26T08:14:29.783Z,22.57
2019-02-26T08:17:01.876Z,24.10
2019-02-26T08:19:34.969Z,17.10
2019-02-26T08:22:07.105Z,19.63
2019-02-26T08:24:38.349Z,17.23
2019-02-26T08:27:11.592Z,17.07
2019-02-26T08:29:42.731Z,14.70
2019-02-26T08:32:18.128Z,19.13
2019-02-26T08:34:47.036Z,18.20
2019-02-26T08:37:18.287Z,18.70
2019-02-26T08:39:50.106Z,21.40
2019-02-26T08:42:21.577Z,25.47
2019-02-26T08:44:54.201Z,21.37
2019-02-26T08:47:25.916Z,19.40
2019-02-26T08:49:58.807Z,20.03
2019-02-26T08:52:30.191Z,17.43
2019-02-26T08:55:01.634Z,16.90
2019-02-26T08:57:32.973Z,14.63
2019-02-26T09:00:04.744Z,15.40
2019-02-26T09:02:36.040Z,13.40
2019-02-26T09:05:09.859Z,15.20
2019-02-26T09:07:43.328Z,16.10
2019-02-26T09:10:17.326Z,13.90
2019-02-26T09:12:48.894Z,31.33
2019-02-26T09:15:21.172Z,26.03
2019-02-26T09:17:52.456Z,19.20
2019-02-26T09:20:23.848Z,17.10
2019-02-26T09:22:56.464Z,20.90
2019-02-26T09:25:30.883Z,18.07
2019-02-26T09:28:01.404Z,16.33
2019-02-26T09:30:33.907Z,15.10
2019-02-26T09:33:06.417Z,18.30
2019-02-26T09:35:38.614Z,18.17
2019-02-26T09:38:09.965Z,16.00
2019-02-26T09:40:41.266Z,18.57
2019-02-26T09:43:14.764Z,15.30
2019-02-26T09:45:45.894Z,17.97
2019-02-26T09:48:19.505Z,19.50
2019-02-26T09:50:51.354Z,20.23
2019-02-26T09:53:22.647Z,20.10
2019-02-26T09:55:53.970Z,20.93
2019-02-26T09:58:25.413Z,17.83
2019-02-26T10:00:56.829Z,18.73
2019-02-26T10:03:29.707Z,16.87
2019-02-26T10:06:00.962Z,18.00
2019-02-26T10:08:32.288Z,18.47
2019-02-26T10:11:04.895Z,17.40
2019-02-26T10:13:36.384Z,17.93
2019-02-26T10:16:08.921Z,21.53
2019-02-26T10:18:40.483Z,23.43
2019-02-26T10:21:14.717Z,20.03
2019-02-26T10:23:47.218Z,17.80
2019-02-26T10:26:39.327Z,13.63
2019-02-26T10:29:11.151Z,14.40
2019-02-26T10:31:42.605Z,14.70
2019-02-26T10:34:15.759Z,12.90
2019-02-26T10:36:49.310Z,16.37
2019-02-26T10:39:20.827Z,15.03
2019-02-26T10:41:52.991Z,23.80
2019-02-26T10:44:24.248Z,22.00
2019-02-26T10:46:55.584Z,18.87
2019-02-26T10:49:28.631Z,22.63
2019-02-26T10:51:59.931Z,16.90
2019-02-26T10:54:35.451Z,17.97
2019-02-26T10:57:07.438Z,16.70
2019-02-26T10:59:37.219Z,17.80
2019-02-26T11:02:09.644Z,16.17
2019-02-26T11:04:41.812Z,19.47
2019-02-26T11:07:14.269Z,13.20
2019-02-26T11:09:49.519Z,15.23
2019-02-26T11:12:20.616Z,20.20
2019-02-26T11:14:51.828Z,19.87
2019-02-26T11:17:45.658Z,17.73
2019-02-26T11:20:18.474Z,15.17
2019-02-26T11:22:51.991Z,14.73
2019-02-26T11:25:26.888Z,15.80
2019-02-26T11:27:57.441Z,14.77
2019-02-26T11:30:32.240Z,16.40
2019-02-26T11:33:11.341Z,12.93
2019-02-26T11:35:47.089Z,19.93
2019-02-26T11:38:23.470Z,17.03
2019-02-26T11:41:02.782Z,15.13
2019-02-26T11:43:45.794Z,16.60
2019-02-26T11:46:25.280Z,15.50
2019-02-26T11:49:00.855Z,15.17
2019-02-26T11:51:41.841Z,14.77
2019-02-26T11:54:20.007Z,16.13
2019-02-26T11:56:57.128Z,14.83
2019-02-26T11:59:33.347Z,19.90
2019-02-26T12:02:06.405Z,17.07
2019-02-26T12:04:40.730Z,15.60
2019-02-26T12:07:14.256Z,15.37
2019-02-26T12:09:47.537Z,15.10
2019-02-26T12:12:22.818Z,17.63
2019-02-26T12:14:55.584Z,15.33
2019-02-26T12:17:29.976Z,15.80
2019-02-26T12:20:03.634Z,18.03
2019-02-26T12:22:41.086Z,21.20
2019-02-26T12:25:15.331Z,19.20
2019-02-26T12:27:48.219Z,15.47
2019-02-26T12:30:24.920Z,15.03
2019-02-26T12:33:01.689Z,11.77
2019-02-26T12:35:37.901Z,11.50
2019-02-26T12:38:28.179Z,11.90
2019-02-26T12:41:21.018Z,8.93
2019-02-26T12:43:52.463Z,12.07
2019-02-26T12:46:25.131Z,7.20
2019-02-26T12:48:57.283Z,7.47
2019-02-26T12:51:31.756Z,7.97
2019-02-26T12:54:03.398Z,8.27
2019-02-26T12:56:37.310Z,6.03
2019-02-26T12:59:07.733Z,8.43
2019-02-26T13:01:40.849Z,7.30
2019-02-26T13:04:13.112Z,7.83
2019-02-26T13:06:48.253Z,7.60
2019-02-26T13:09:18.371Z,7.67
2019-02-26T13:12:01.219Z,6.87
2019-02-26T13:14:23.795Z,6.03
2019-02-26T13:16:57.076Z,6.90
2019-02-26T13:19:32.723Z,5.50
2019-02-26T13:22:06.641Z,6.77
2019-02-26T13:24:34.147Z,5.00
2019-02-26T13:27:05.611Z,7.90
2019-02-26T13:29:53.486Z,7.30
2019-02-26T13:32:21.004Z,5.20
2019-02-26T13:34:55.639Z,6.47
2019-02-26T13:37:36.464Z,5.53
2019-02-26T13:40:12.795Z,6.60
2019-02-26T13:42:49.893Z,6.60
2019-02-26T13:45:21.175Z,7.60
2019-02-26T13:48:00.720Z,6.60
2019-02-26T13:50:28.441Z,7.13
2019-02-26T13:53:00.047Z,9.60
2019-02-26T13:55:31.502Z,8.50
2019-02-26T13:58:11.486Z,8.00
2019-02-26T14:00:37.268Z,10.83
2019-02-26T14:03:08.763Z,8.30
2019-02-26T14:05:40.083Z,10.87
2019-02-26T14:08:12.028Z,8.10
2019-02-26T14:10:43.576Z,9.87
2019-02-26T14:13:15.175Z,8.00
2019-02-26T14:15:46.665Z,6.10
2019-02-26T14:18:18.009Z,10.47
2019-02-26T14:20:49.365Z,12.67
2019-02-26T14:23:20.711Z,9.93
2019-02-26T14:25:52.188Z,8.07
2019-02-26T14:28:23.689Z,6.50
2019-02-26T14:30:55.019Z,5.90
2019-02-26T14:33:26.499Z,9.67
2019-02-26T14:35:57.921Z,6.73
2019-02-26T14:38:29.363Z,6.80
2019-02-26T14:41:02.249Z,9.40
2019-02-26T14:43:33.684Z,6.40
2019-02-26T14:46:04.957Z,8.10
2019-02-26T14:48:55.664Z,9.90
2019-02-26T14:51:27.389Z,8.53
2019-02-26T14:53:58.736Z,7.53
2019-02-26T14:56:30.232Z,7.07
2019-02-26T14:59:01.615Z,7.27
2019-02-26T15:01:33.729Z,8.67
2019-02-26T15:04:05.329Z,7.27
2019-02-26T15:06:36.593Z,9.00
2019-02-26T15:09:08.987Z,7.47
2019-02-26T15:11:40.633Z,8.17
2019-02-26T15:14:12.035Z,10.43
2019-02-26T15:16:43.910Z,10.33
2019-02-26T15:19:18.796Z,8.13
2019-02-26T15:21:59.109Z,7.23
2019-02-26T15:24:30.678Z,9.27
2019-02-26T15:27:02.462Z,9.57
2019-02-26T15:29:33.859Z,7.83
2019-02-26T15:32:05.654Z,10.33
2019-02-26T15:34:37.582Z,8.73
2019-02-26T15:37:09.447Z,10.37
2019-02-26T15:39:43.205Z,11.90
2019-02-26T15:42:14.807Z,9.20
2019-02-26T15:44:46.245Z,10.17
2019-02-26T15:47:17.639Z,9.43
2019-02-26T15:49:49.321Z,9.23
2019-02-26T15:52:22.249Z,10.90
2019-02-26T15:54:57.337Z,10.40
2019-02-26T15:57:31.135Z,13.03
2019-02-26T16:00:06.469Z,11.17
2019-02-26T16:02:36.814Z,12.10
2019-02-26T16:05:09.775Z,9.50
2019-02-26T16:07:41.039Z,10.07
2019-02-26T16:10:12.735Z,10.20
2019-02-26T16:12:44.224Z,10.37
2019-02-26T16:15:16.023Z,10.70
2019-02-26T16:17:47.453Z,9.53
2019-02-26T16:20:21.908Z,11.57
2019-02-26T16:22:53.327Z,14.50
2019-02-26T16:25:27.457Z,12.57
2019-02-26T16:27:59.002Z,9.60
2019-02-26T16:30:31.147Z,9.33
2019-02-26T16:33:02.502Z,8.10
2019-02-26T16:35:34.069Z,10.27
2019-02-26T16:38:05.578Z,11.10
2019-02-26T16:40:37.089Z,10.17
2019-02-26T16:43:08.665Z,12.20
2019-02-26T16:45:40.203Z,12.03
2019-02-26T16:48:11.698Z,9.33
2019-02-26T16:50:45.150Z,14.73
2019-02-26T16:53:16.163Z,10.03
2019-02-26T16:55:49.063Z,13.63
2019-02-26T16:58:39.460Z,11.83
2019-02-26T17:01:30.225Z,12.90
2019-02-26T17:04:02.383Z,8.70
2019-02-26T17:06:35.780Z,9.53
2019-02-26T17:09:09.448Z,11.00
2019-02-26T17:11:41.098Z,13.00
2019-02-26T17:14:14.827Z,11.47
2019-02-26T17:16:47.238Z,9.73
2019-02-26T17:19:21.780Z,13.37
2019-02-26T17:21:53.694Z,14.90
2019-02-26T17:24:25.736Z,18.27
2019-02-26T17:26:57.444Z,22.00
2019-02-26T17:29:29.491Z,20.40
2019-02-26T17:32:04.873Z,16.63
2019-02-26T17:34:47.717Z,14.10
2019-02-26T17:37:19.181Z,14.80
2019-02-26T17:39:54.454Z,17.50
2019-02-26T17:42:27.361Z,12.20
2019-02-26T17:45:02.049Z,10.60
2019-02-26T17:47:36.365Z,12.37
2019-02-26T17:50:16.320Z,15.90
2019-02-26T17:52:48.254Z,14.93
2019-02-26T17:55:21.351Z,17.53
2019-02-26T17:57:53.083Z,15.50
2019-02-26T18:00:25.327Z,17.43
2019-02-26T18:02:56.842Z,16.07
2019-02-26T18:05:32.140Z,13.70
2019-02-26T18:08:03.898Z,18.20
2019-02-26T18:10:40.340Z,14.00
2019-02-26T18:13:11.962Z,13.23
2019-02-26T18:15:46.814Z,12.13
2019-02-26T18:18:18.654Z,11.77
2019-02-26T18:20:52.691Z,16.53
2019-02-26T18:23:24.330Z,17.60
2019-02-26T18:25:55.858Z,17.53
2019-02-26T18:28:27.791Z,16.33
2019-02-26T18:31:00.745Z,19.97
2019-02-26T18:33:35.567Z,16.97
2019-02-26T18:36:05.464Z,13.43
2019-02-26T18:38:37.226Z,16.00
2019-02-26T18:41:09.085Z,16.00
2019-02-26T18:43:41.345Z,14.90
2019-02-26T18:46:12.963Z,17.23
2019-02-26T18:48:48.329Z,19.60
2019-02-26T18:51:18.209Z,16.97
2019-02-26T18:53:50.064Z,14.57
2019-02-26T18:56:24.448Z,15.30
2019-02-26T18:58:56.098Z,18.33
2019-02-26T19:01:28.461Z,16.07
2019-02-26T19:04:00.710Z,19.37
2019-02-26T19:06:32.320Z,20.50
2019-02-26T19:09:23.063Z,18.07
2019-02-26T19:12:13.816Z,23.50
2019-02-26T19:14:50.531Z,15.70
2019-02-26T19:17:21.897Z,15.20
2019-02-26T19:20:09.861Z,15.77
2019-02-26T19:22:41.277Z,19.50
2019-02-26T19:25:13.037Z,20.97
2019-02-26T19:27:44.446Z,20.57
2019-02-26T19:30:17.995Z,21.03
2019-02-26T19:32:49.318Z,24.17
2019-02-26T19:35:21.048Z,33.97
2019-02-26T19:37:55.914Z,19.97
2019-02-26T19:40:38.760Z,24.93
2019-02-26T19:43:07.704Z,23.73
2019-02-26T19:45:44.316Z,23.40
2019-02-26T19:48:14.837Z,24.93
2019-02-26T19:50:48.707Z,20.83
2019-02-26T19:53:19.292Z,22.53
2019-02-26T19:55:53.011Z,24.70
2019-02-26T19:58:24.058Z,19.60
2019-02-26T20:00:55.339Z,20.30
2019-02-26T20:03:26.683Z,26.60
2019-02-26T20:05:57.895Z,24.70
2019-02-26T20:08:31.842Z,24.00
2019-02-26T20:11:02.761Z,22.03
2019-02-26T20:13:34.653Z,19.90
2019-02-26T20:16:10.355Z,23.23
2019-02-26T20:19:00.626Z,18.10
2019-02-26T20:21:31.954Z,19.93
2019-02-26T20:24:06.135Z,23.33
2019-02-26T20:26:38.844Z,20.00
2019-02-26T20:29:12.116Z,23.40
2019-02-26T20:31:44.370Z,23.73
2019-02-26T20:34:16.530Z,30.93
2019-02-26T20:36:48.758Z,25.30
2019-02-26T20:39:24.216Z,20.80
2019-02-26T20:42:01.053Z,19.37
2019-02-26T20:44:37.230Z,23.27
2019-02-26T20:47:13.212Z,19.33
2019-02-26T20:49:48.093Z,24.97
2019-02-26T20:52:19.447Z,22.63
2019-02-26T20:54:53.864Z,23.70
2019-02-26T20:57:25.172Z,20.73
2019-02-26T20:59:56.668Z,30.13
2019-02-26T21:02:31.659Z,21.30
2019-02-26T21:05:03.026Z,21.23
2019-02-26T21:07:35.658Z,23.43
2019-02-26T21:10:08.020Z,22.33
2019-02-26T21:12:42.186Z,28.83
2019-02-26T21:15:16.559Z,24.53
2019-02-26T21:17:47.970Z,23.70
2019-02-26T21:20:19.462Z,23.87
2019-02-26T21:23:28.707Z,23.57
2019-02-26T21:26:19.682Z,27.10
2019-02-26T21:28:51.876Z,24.57
2019-02-26T21:31:23.277Z,27.03
2019-02-26T21:33:54.667Z,25.40
2019-02-26T21:36:27.982Z,26.57
2019-02-26T21:38:59.053Z,24.23
2019-02-26T21:41:30.419Z,29.20
2019-02-26T21:44:01.869Z,25.43
2019-02-26T21:46:33.562Z,26.30
2019-02-26T21:49:04.915Z,26.20
2019-02-26T21:51:36.295Z,28.47
2019-02-26T21:54:07.682Z,28.30
2019-02-26T21:56:38.926Z,25.40
2019-02-26T21:59:10.318Z,28.40
2019-02-26T22:01:45.839Z,33.03
2019-02-26T22:04:14.518Z,31.10
2019-02-26T22:06:47.683Z,28.27
2019-02-26T22:09:21.971Z,37.63
2019-02-26T22:11:53.275Z,25.80
2019-02-26T22:14:25.944Z,26.57
2019-02-26T22:16:57.714Z,21.33
2019-02-26T22:19:29.123Z,22.90
2019-02-26T22:22:00.563Z,24.20
2019-02-26T22:24:32.045Z,30.33
2019-02-26T22:27:05.124Z,19.77
2019-02-26T22:30:21.463Z,25.63
2019-02-26T22:33:10.288Z,25.67
2019-02-26T22:35:41.703Z,24.10
2019-02-26T22:38:15.362Z,26.83
2019-02-26T22:40:45.977Z,23.60
2019-02-26T22:43:17.247Z,29.03
2019-02-26T22:45:48.741Z,23.53
2019-02-26T22:48:20.055Z,24.07
2019-02-26T22:50:51.386Z,28.20
2019-02-26T22:53:22.631Z,25.90
2019-02-26T22:55:53.931Z,25.17
2019-02-26T22:58:25.326Z,23.60
2019-02-26T23:01:17.865Z,24.27
2019-02-26T23:03:49.247Z,26.70
2019-02-26T23:06:20.907Z,23.97
2019-02-26T23:08:52.546Z,22.20
2019-02-26T23:11:24.220Z,27.30
2019-02-26T23:13:55.851Z,23.57
2019-02-26T23:16:27.579Z,29.47
2019-02-26T23:19:01.391Z,26.00
2019-02-26T23:21:32.773Z,28.03
2019-02-26T23:24:04.857Z,26.20
2019-02-26T23:26:36.716Z,22.63
2019-02-26T23:29:08.472Z,31.67
2019-02-26T23:31:39.908Z,29.90
2019-02-26T23:34:11.536Z,22.83
2019-02-26T23:37:01.931Z,25.40
2019-02-26T23:39:53.617Z,29.20
2019-02-26T23:42:25.443Z,32.57
2019-02-26T23:44:56.777Z,24.60
2019-02-26T23:47:28.053Z,23.00
2019-02-26T23:49:59.464Z,29.97
2019-02-26T23:52:30.800Z,27.07
2019-02-26T23:55:02.182Z,35.07
2019-02-26T23:57:36.427Z,30.93
